Time;durP1;ratioP1;P1;durP2;ratioP2;P2;SDS_P1;SDS_P2;PMS_P1;PMS_P2;Temp;Humidity;BMP_temperature;BMP_pressure;BME280_temperature;BME280_humidity;BME280_pressure;Samples;Min_cycle;Max_cycle;Signal;HPM_P1;HPM_P2
2022/08/26 00:02:11;;;;;;;17.65;4.28;;;;;;;25.90;57.58;99605.38;5070967;28;20191;-67
2022/08/26 00:04:38;;;;;;;19.42;3.92;;;;;;;25.98;58.74;99608.47;5070700;28;20209;-68
2022/08/26 00:07:05;;;;;;;18.67;4.13;;;;;;;25.86;60.20;99611.84;5070924;28;20198;-67
2022/08/26 00:09:33;;;;;;;25.40;4.57;;;;;;;25.82;61.79;99604.97;5070666;28;20206;-67
2022/08/26 00:12:00;;;;;;;12.52;4.25;;;;;;;25.75;59.93;99608.91;5070242;28;20600;-67
2022/08/26 00:14:27;;;;;;;20.80;4.00;;;;;;;25.79;59.11;99594.50;5070708;28;20225;-67
2022/08/26 00:16:54;;;;;;;18.30;3.90;;;;;;;25.74;60.58;99596.56;5070123;28;20210;-68
2022/08/26 00:19:22;;;;;;;19.92;3.75;;;;;;;25.73;60.05;99586.88;5069942;28;20193;-67
2022/08/26 00:21:49;;;;;;;15.18;3.78;;;;;;;25.79;59.72;99598.97;5070280;28;20568;-67
2022/08/26 00:24:16;;;;;;;17.60;4.10;;;;;;;25.80;59.68;99606.84;5070310;28;20217;-67
2022/08/26 00:26:45;;;;;;;25.95;3.95;;;;;;;25.64;60.03;99577.63;5051181;28;20190;-67
2022/08/26 00:29:12;;;;;;;15.00;3.55;;;;;;;25.64;60.32;99590.91;5070404;28;20658;-67
2022/08/26 00:31:40;;;;;;;21.60;3.70;;;;;;;25.73;60.16;99594.84;5070018;28;20209;-68
2022/08/26 00:34:07;;;;;;;16.23;4.25;;;;;;;25.60;59.82;99565.44;5054168;28;20209;-67
2022/08/26 00:36:34;;;;;;;14.40;4.00;;;;;;;25.81;60.41;99582.00;5070181;28;20211;-67
2022/08/26 00:39:01;;;;;;;20.55;4.47;;;;;;;25.78;59.86;99582.16;5070620;28;20241;-67
2022/08/26 00:41:28;;;;;;;17.90;4.32;;;;;;;25.81;61.65;99581.13;5070452;28;20203;-67
2022/08/26 00:43:56;;;;;;;13.88;4.00;;;;;;;25.71;60.76;99548.94;5031523;28;20652;-67
2022/08/26 00:46:27;;;;;;;13.00;4.03;;;;;;;25.79;61.09;99588.34;5065261;28;20210;-68
2022/08/26 00:49:02;;;;;;;21.80;3.85;;;;;;;25.68;62.94;99580.97;5069909;28;20605;-67
2022/08/26 00:51:29;;;;;;;20.77;4.25;;;;;;;25.57;64.03;99580.69;5067935;28;20194;-67
2022/08/26 00:54:00;;;;;;;13.32;3.88;;;;;;;25.59;63.29;99581.47;5070804;28;20206;-67
2022/08/26 00:56:31;;;;;;;13.23;4.20;;;;;;;25.55;62.26;99571.94;5070070;28;20582;-68
2022/08/26 00:59:05;;;;;;;14.25;3.80;;;;;;;25.66;61.65;99590.81;5070838;28;20206;-67
2022/08/26 01:01:32;;;;;;;13.88;3.72;;;;;;;25.53;63.42;99565.88;5034733;28;20294;-67
2022/08/26 01:03:59;;;;;;;15.95;4.13;;;;;;;25.68;64.23;99585.41;5070135;28;20260;-67
2022/08/26 01:06:27;;;;;;;11.18;3.90;;;;;;;25.68;63.06;99590.72;5069505;28;20198;-67
2022/08/26 01:08:54;;;;;;;14.43;3.70;;;;;;;25.73;64.07;99589.53;5069447;28;20199;-67
2022/08/26 01:11:21;;;;;;;19.45;3.95;;;;;;;25.75;65.25;99587.66;5031218;28;20310;-68
2022/08/26 01:13:51;;;;;;;19.48;3.97;;;;;;;25.86;64.31;99593.25;5059847;28;20592;-67
2022/08/26 01:16:19;;;;;;;20.17;4.00;;;;;;;25.79;63.27;99583.88;5069716;28;20687;-67
2022/08/26 01:18:47;;;;;;;15.98;3.80;;;;;;;25.79;64.80;99594.50;5068269;28;20198;-68
2022/08/26 01:21:21;;;;;;;9.98;3.78;;;;;;;25.76;66.26;99584.03;5073944;28;20633;-68
2022/08/26 01:23:51;;;;;;;14.77;3.47;;;;;;;25.71;67.38;99588.75;5073578;28;20207;-67
2022/08/26 01:26:22;;;;;;;17.73;3.38;;;;;;;25.67;69.15;99589.88;5073659;28;20202;-67
2022/08/26 01:28:51;;;;;;;13.65;4.00;;;;;;;25.55;69.94;99587.88;5072784;28;20281;-67
2022/08/26 01:31:22;;;;;;;17.77;4.63;;;;;;;25.47;69.96;99588.25;5036543;28;20910;-68
2022/08/26 01:33:55;;;;;;;12.75;4.15;;;;;;;25.31;67.97;99575.88;5073006;28;20206;-68
2022/08/26 01:36:22;;;;;;;20.85;3.70;;;;;;;25.30;65.10;99600.69;5073388;28;20218;-68
2022/08/26 01:38:51;;;;;;;10.55;3.38;;;;;;;25.28;63.39;99603.47;5037567;28;20205;-68
2022/08/26 01:41:19;;;;;;;18.05;4.25;;;;;;;25.33;64.23;99600.56;5073162;28;20212;-68
2022/08/26 01:43:50;;;;;;;23.17;3.80;;;;;;;25.35;62.56;99603.97;5073540;28;20206;-68
2022/08/26 01:46:18;;;;;;;17.48;3.30;;;;;;;25.36;62.59;99601.25;5072340;28;20295;-68
2022/08/26 01:48:46;;;;;;;14.05;3.80;;;;;;;25.46;61.60;99606.94;5072084;28;20578;-68
2022/08/26 01:51:14;;;;;;;23.67;4.68;;;;;;;25.46;61.33;99601.63;5072522;28;20585;-68
2022/08/26 01:53:41;;;;;;;17.25;3.95;;;;;;;25.45;61.68;99607.84;5072673;28;20195;-68
2022/08/26 01:56:11;;;;;;;17.58;4.35;;;;;;;25.38;60.28;99583.44;5053331;28;20218;-67
2022/08/26 01:58:42;;;;;;;13.18;3.85;;;;;;;25.45;62.76;99600.75;5072511;28;20225;-66
2022/08/26 02:01:10;;;;;;;14.35;3.42;;;;;;;25.16;63.37;99599.63;5073167;28;20202;-66
2022/08/26 02:03:49;;;;;;;9.90;3.25;;;;;;;25.31;64.46;99602.41;5037164;28;20673;-67
2022/08/26 02:06:18;;;;;;;23.15;3.50;;;;;;;25.23;65.13;99599.31;5073257;28;20206;-67
2022/08/26 02:08:47;;;;;;;14.80;3.45;;;;;;;25.20;64.72;99597.69;5072264;28;20198;-67
2022/08/26 02:11:16;;;;;;;13.85;3.45;;;;;;;25.24;64.91;99595.72;5072354;28;20227;-66
2022/08/26 02:13:46;;;;;;;19.58;3.88;;;;;;;25.26;65.57;99599.13;5068270;28;20598;-67
2022/08/26 02:16:17;;;;;;;11.93;3.45;;;;;;;25.33;64.98;99605.88;5069626;28;20623;-67
2022/08/26 02:18:45;;;;;;;11.27;3.85;;;;;;;25.20;65.52;99599.47;5072338;28;20202;-67
2022/08/26 02:21:12;;;;;;;14.52;3.45;;;;;;;25.23;61.34;99592.22;5072340;28;20682;-68
2022/08/26 02:23:40;;;;;;;17.20;3.85;;;;;;;25.08;61.36;99577.94;5072743;28;20207;-67
2022/08/26 02:26:10;;;;;;;12.32;3.50;;;;;;;25.15;64.19;99595.25;5072042;28;20194;-67
2022/08/26 02:28:41;;;;;;;8.95;3.15;;;;;;;25.13;63.64;99598.94;5037801;28;20294;-67
2022/08/26 02:31:08;;;;;;;16.48;3.38;;;;;;;25.11;60.49;99600.84;5071950;28;20191;-67
2022/08/26 02:33:35;;;;;;;9.23;2.75;;;;;;;25.12;60.26;99606.03;5071684;28;20213;-67
2022/08/26 02:36:02;;;;;;;10.98;3.13;;;;;;;25.18;60.64;99604.88;5037000;28;20223;-67
2022/08/26 02:38:29;;;;;;;22.17;3.25;;;;;;;25.23;59.70;99608.13;5071929;28;20206;-68
2022/08/26 02:40:56;;;;;;;11.02;3.30;;;;;;;25.25;60.46;99592.16;5055718;28;20195;-68
2022/08/26 02:43:22;;;;;;;13.32;3.33;;;;;;;25.26;60.18;99604.44;5033660;28;20218;-67
2022/08/26 02:45:51;;;;;;;9.65;3.33;;;;;;;25.19;61.55;99582.69;5070122;28;20202;-69
2022/08/26 02:48:20;;;;;;;12.95;3.70;;;;;;;25.31;63.72;99603.28;5072035;28;20257;-68
2022/08/26 02:50:47;;;;;;;8.52;3.65;;;;;;;25.22;63.31;99590.47;5072052;28;20213;-68
2022/08/26 02:53:15;;;;;;;14.75;3.80;;;;;;;25.16;64.84;99589.03;5072007;28;20680;-68
2022/08/26 02:55:42;;;;;;;15.18;3.42;;;;;;;25.25;64.43;99598.31;5036595;28;20230;-68
2022/08/26 02:58:10;;;;;;;7.57;3.22;;;;;;;25.10;65.09;99599.09;5071455;28;20206;-68
2022/08/26 03:00:37;;;;;;;12.10;3.78;;;;;;;25.15;61.43;99595.25;5071778;28;20205;-68
2022/08/26 03:03:06;;;;;;;7.82;3.40;;;;;;;25.14;59.32;99601.53;5071634;28;20199;-68
2022/08/26 03:05:33;;;;;;;10.57;3.42;;;;;;;25.16;59.98;99604.09;5071037;28;20198;-68
2022/08/26 03:08:00;;;;;;;21.10;4.20;;;;;;;25.12;58.59;99592.78;5071667;28;20226;-68
2022/08/26 03:10:27;;;;;;;11.27;3.70;;;;;;;25.16;60.21;99610.25;5071213;28;20191;-67
2022/08/26 03:12:54;;;;;;;13.68;3.45;;;;;;;25.12;59.78;99606.03;5071752;28;20260;-68
2022/08/26 03:15:21;;;;;;;19.52;3.75;;;;;;;25.09;61.88;99610.66;5071323;28;20607;-68
2022/08/26 03:17:48;;;;;;;16.00;2.92;;;;;;;24.96;63.59;99593.66;5071296;28;20198;-68
2022/08/26 03:20:17;;;;;;;19.90;3.20;;;;;;;25.04;64.66;99599.44;5071092;28;20203;-68
2022/08/26 03:22:44;;;;;;;13.52;3.13;;;;;;;25.11;64.47;99609.63;5071530;28;20751;-68
2022/08/26 03:25:13;;;;;;;12.85;3.33;;;;;;;25.00;64.47;99588.13;5071371;28;20564;-68
2022/08/26 03:27:40;;;;;;;12.80;3.67;;;;;;;24.73;66.57;99544.41;5071235;28;20207;-68
2022/08/26 03:32:53;;;;;;;8.55;3.15;;;;;;;24.97;68.25;99604.16;5071437;28;20633;-68
2022/08/26 03:35:21;;;;;;;10.55;3.92;;;;;;;24.95;68.00;99590.16;5070823;28;20233;-68
2022/08/26 03:37:48;;;;;;;13.77;3.75;;;;;;;25.07;66.75;99612.53;5070766;28;20202;-68
2022/08/26 03:40:15;;;;;;;6.63;2.92;;;;;;;25.03;68.79;99608.31;5070698;28;20256;-68
2022/08/26 03:42:43;;;;;;;16.92;2.95;;;;;;;24.89;66.76;99602.88;5070089;28;20690;-68
2022/08/26 03:45:11;;;;;;;11.13;3.30;;;;;;;24.96;66.93;99612.22;5071055;28;20615;-68
2022/08/26 03:47:39;;;;;;;7.95;2.80;;;;;;;24.98;68.79;99618.31;5070694;28;20260;-68
2022/08/26 03:50:08;;;;;;;12.05;3.35;;;;;;;24.95;65.77;99610.50;5070907;28;20202;-69
2022/08/26 03:52:36;;;;;;;11.63;3.55;;;;;;;25.05;66.58;99625.88;5055370;28;20201;-68
2022/08/26 03:55:05;;;;;;;18.65;3.50;;;;;;;25.03;67.67;99610.97;5069804;28;20203;-68
2022/08/26 03:57:32;;;;;;;10.63;3.60;;;;;;;25.12;66.45;99626.41;5076766;28;20207;-68
2022/08/26 03:59:59;;;;;;;16.58;3.60;;;;;;;25.28;67.46;99626.47;5070662;28;20203;-68
2022/08/26 04:02:26;;;;;;;18.25;3.67;;;;;;;25.35;65.51;99630.53;5069876;28;20218;-68
2022/08/26 04:04:53;;;;;;;14.65;3.60;;;;;;;25.44;65.11;99630.03;5069959;28;20203;-68
2022/08/26 04:07:20;;;;;;;14.82;3.03;;;;;;;25.46;60.79;99628.16;5069931;28;20194;-68
2022/08/26 04:09:48;;;;;;;16.30;3.33;;;;;;;25.54;59.80;99624.19;5070934;28;20201;-69
2022/08/26 04:12:15;;;;;;;8.18;2.72;;;;;;;25.55;59.98;99623.25;5070038;28;20709;-68
2022/08/26 04:14:42;;;;;;;11.35;3.35;;;;;;;25.62;60.41;99634.41;5035574;28;20187;-69
2022/08/26 04:17:09;;;;;;;10.07;2.97;;;;;;;25.65;58.69;99636.88;5070522;28;20227;-68
2022/08/26 04:19:35;;;;;;;8.63;3.03;;;;;;;25.63;60.08;99629.00;5070971;28;20209;-68
2022/08/26 04:22:02;;;;;;;10.40;3.47;;;;;;;25.68;59.86;99623.47;5070242;28;20202;-69
2022/08/26 04:24:29;;;;;;;7.82;2.83;;;;;;;25.69;60.10;99632.25;5070544;28;20202;-68
2022/08/26 04:26:58;;;;;;;9.70;2.97;;;;;;;25.78;61.18;99631.78;5069513;28;20195;-68
2022/08/26 04:29:26;;;;;;;9.77;3.15;;;;;;;25.78;59.76;99631.78;5070099;28;20191;-68
2022/08/26 04:31:54;;;;;;;12.90;3.10;;;;;;;25.82;59.81;99636.84;5070263;28;20202;-68
2022/08/26 04:34:22;;;;;;;13.30;3.15;;;;;;;25.80;59.82;99630.75;5070295;28;20862;-68
2022/08/26 04:36:50;;;;;;;19.48;3.08;;;;;;;25.75;60.35;99614.22;5069963;28;20222;-68
2022/08/26 04:39:19;;;;;;;6.90;3.15;;;;;;;25.92;59.45;99640.72;5070080;28;20202;-68
2022/08/26 04:41:46;;;;;;;16.80;3.60;;;;;;;25.58;59.17;99575.28;5070498;28;20252;-68
2022/08/26 04:44:15;;;;;;;4.85;2.60;;;;;;;25.92;58.17;99622.13;5070376;28;20194;-68
2022/08/26 04:46:42;;;;;;;8.25;3.67;;;;;;;25.83;58.99;99617.28;5069686;28;20635;-69
2022/08/26 04:49:09;;;;;;;6.70;3.13;;;;;;;26.05;57.65;99647.06;5069208;28;20194;-68
2022/08/26 04:51:36;;;;;;;9.90;3.70;;;;;;;26.11;57.08;99646.72;5070128;28;20190;-68
2022/08/26 04:54:05;;;;;;;9.57;3.58;;;;;;;26.03;60.35;99630.34;5071702;28;20214;-68
2022/08/26 04:56:35;;;;;;;23.30;4.25;;;;;;;26.17;58.13;99644.66;5073736;28;20227;-66
2022/08/26 04:59:04;;;;;;;13.82;3.75;;;;;;;26.20;57.83;99647.19;5073990;28;20199;-67
2022/08/26 05:01:33;;;;;;;10.82;2.97;;;;;;;26.38;59.78;99640.84;5073446;28;20201;-67
2022/08/26 05:04:01;;;;;;;18.63;3.50;;;;;;;26.43;58.79;99638.78;5073052;28;20195;-66
2022/08/26 05:06:28;;;;;;;10.95;3.17;;;;;;;26.42;58.58;99639.72;5063282;28;20200;-67
2022/08/26 05:08:55;;;;;;;9.50;4.32;;;;;;;26.24;59.96;99635.44;5054087;28;20679;-66
2022/08/26 05:11:22;;;;;;;10.55;3.75;;;;;;;26.55;59.59;99630.09;5056075;28;20246;-67
2022/08/26 05:13:49;;;;;;;19.98;4.53;;;;;;;26.79;57.04;99639.28;5072086;28;20210;-66
2022/08/26 05:16:16;;;;;;;17.30;4.43;;;;;;;27.28;56.21;99633.78;5060937;28;20238;-67
2022/08/26 05:18:46;;;;;;;12.98;3.50;;;;;;;27.81;52.53;99622.50;5073816;28;20206;-65
2022/08/26 05:21:18;;;;;;;11.45;3.53;;;;;;;28.68;50.05;99631.09;5060479;28;20198;-66
2022/08/26 05:23:46;;;;;;;17.55;3.90;;;;;;;29.01;50.95;99621.66;5072166;28;20206;-66
2022/08/26 05:26:13;;;;;;;12.90;3.58;;;;;;;28.42;52.01;99624.78;5073296;28;20202;-66
2022/08/26 05:28:40;;;;;;;11.85;3.97;;;;;;;27.86;52.92;99610.56;5073375;28;20585;-66
2022/08/26 05:31:15;;;;;;;10.70;3.78;;;;;;;27.92;53.92;99642.19;5068133;28;20198;-66
2022/08/26 05:33:47;;;;;;;13.35;3.83;;;;;;;27.49;54.90;99641.34;5071234;28;20661;-66
2022/08/26 05:36:15;;;;;;;11.57;3.28;;;;;;;27.43;57.25;99638.16;5067392;28;20226;-66
2022/08/26 05:38:43;;;;;;;18.70;3.60;;;;;;;27.51;55.54;99635.91;5048708;28;20203;-66
2022/08/26 05:41:23;;;;;;;14.50;3.90;;;;;;;27.47;54.78;99613.06;5062688;28;20235;-66
2022/08/26 05:43:50;;;;;;;7.55;3.25;;;;;;;27.22;50.35;99640.31;5073310;28;20207;-66
2022/08/26 05:46:17;;;;;;;19.23;3.72;;;;;;;26.92;55.02;99648.31;5073073;28;20705;-66
2022/08/26 05:48:46;;;;;;;13.68;3.58;;;;;;;26.47;57.25;99650.97;5073287;28;20206;-67
2022/08/26 05:51:13;;;;;;;7.65;3.20;;;;;;;26.77;58.98;99651.84;5052330;28;20215;-67
2022/08/26 05:53:42;;;;;;;12.15;3.90;;;;;;;26.68;60.66;99643.56;5053310;28;20556;-66
2022/08/26 05:56:12;;;;;;;13.75;3.80;;;;;;;26.67;60.64;99639.16;5060474;28;20253;-67
2022/08/26 05:58:40;;;;;;;16.40;3.50;;;;;;;26.68;62.94;99649.72;5053790;28;20218;-67
2022/08/26 06:01:11;;;;;;;9.77;3.65;;;;;;;26.51;64.01;99642.69;5053218;28;20663;-67
2022/08/26 06:03:40;;;;;;;9.70;3.40;;;;;;;26.34;65.84;99648.13;5052896;28;20719;-67
2022/08/26 06:06:11;;;;;;;9.15;4.03;;;;;;;26.12;67.24;99645.78;5052879;28;20265;-66
2022/08/26 06:08:38;;;;;;;9.15;3.67;;;;;;;26.04;68.53;99641.84;5052750;28;20204;-67
2022/08/26 06:11:07;;;;;;;8.48;3.78;;;;;;;26.14;69.20;99638.59;5052757;28;20224;-66
2022/08/26 06:13:35;;;;;;;14.73;3.95;;;;;;;26.13;67.53;99654.63;5052724;28;20204;-66
2022/08/26 06:16:04;;;;;;;8.93;3.75;;;;;;;25.91;69.75;99636.34;5052858;28;20206;-66
2022/08/26 06:18:33;;;;;;;19.65;4.18;;;;;;;26.26;68.68;99660.13;5052847;28;20302;-66
2022/08/26 06:21:10;;;;;;;9.95;3.67;;;;;;;26.19;68.54;99656.09;5052805;28;20904;-67
2022/08/26 06:26:24;;;;;;;9.55;3.78;;;;;;;26.53;66.28;99663.91;5052765;28;20229;-67
2022/08/26 06:28:51;;;;;;;24.92;3.95;;;;;;;26.83;65.49;99659.50;5052712;28;20207;-66
2022/08/26 06:31:18;;;;;;;9.82;3.40;;;;;;;26.99;62.58;99665.66;5052724;28;20206;-66
2022/08/26 06:33:45;;;;;;;15.65;3.58;;;;;;;27.08;63.57;99667.75;5017284;28;20203;-67
2022/08/26 06:36:16;;;;;;;15.73;3.70;;;;;;;27.01;63.11;99670.88;5052309;28;20223;-68
2022/08/26 06:38:45;;;;;;;11.80;4.22;;;;;;;26.97;62.65;99672.84;5068630;28;20202;-68
2022/08/26 06:41:11;;;;;;;13.02;3.70;;;;;;;27.11;62.70;99670.22;5072293;28;20203;-67
2022/08/26 06:43:38;;;;;;;7.38;3.03;;;;;;;27.14;61.13;99669.22;5072105;28;20576;-68
2022/08/26 06:46:08;;;;;;;16.63;4.13;;;;;;;27.38;59.46;99673.06;5072322;28;20207;-68
2022/08/26 06:48:36;;;;;;;10.55;3.50;;;;;;;27.24;58.05;99673.03;5072103;28;20202;-67
2022/08/26 06:51:05;;;;;;;12.60;4.30;;;;;;;27.66;55.10;99674.06;5071902;28;20199;-68
2022/08/26 06:53:32;;;;;;;10.05;3.42;;;;;;;27.54;55.37;99660.53;5072029;28;20206;-68
2022/08/26 06:56:03;;;;;;;15.85;3.10;;;;;;;27.80;56.06;99680.25;5072050;28;20206;-68
2022/08/26 06:58:30;;;;;;;7.82;3.72;;;;;;;27.95;54.76;99681.13;5066613;28;20199;-69
2022/08/26 07:00:57;;;;;;;10.80;3.30;;;;;;;28.20;53.70;99675.97;5064864;28;20218;-68
2022/08/26 07:03:24;;;;;;;15.18;3.50;;;;;;;28.58;53.01;99677.03;5051335;28;20569;-68
2022/08/26 07:05:51;;;;;;;7.97;4.03;;;;;;;28.72;49.66;99676.13;5056499;28;20199;-69
2022/08/26 07:08:18;;;;;;;11.63;3.22;;;;;;;28.72;47.54;99668.13;5079861;28;20198;-68
2022/08/26 07:10:45;;;;;;;13.57;3.38;;;;;;;28.85;45.88;99679.72;5057973;28;20245;-68
2022/08/26 07:13:13;;;;;;;8.30;3.03;;;;;;;28.61;45.70;99686.63;5050279;28;20203;-69
2022/08/26 07:15:40;;;;;;;5.30;3.35;;;;;;;28.70;46.12;99683.41;5013973;28;20203;-68
2022/08/26 07:18:08;;;;;;;8.18;3.45;;;;;;;28.47;46.61;99660.84;5063539;28;20623;-69
2022/08/26 07:20:38;;;;;;;14.48;3.35;;;;;;;28.63;46.35;99676.72;5060137;28;20306;-69
2022/08/26 07:23:06;;;;;;;10.43;3.70;;;;;;;28.39;48.13;99678.34;5014921;28;20656;-69
2022/08/26 07:25:32;;;;;;;11.13;3.78;;;;;;;28.63;47.55;99684.72;5049066;28;20209;-69
2022/08/26 07:28:00;;;;;;;11.50;3.70;;;;;;;28.35;48.01;99676.81;5049044;28;20199;-68
2022/08/26 07:30:28;;;;;;;13.00;3.65;;;;;;;28.38;49.56;99677.47;5050467;28;20235;-69
2022/08/26 07:32:57;;;;;;;10.55;4.40;;;;;;;28.58;49.68;99685.03;5056520;28;20207;-69
2022/08/26 07:35:24;;;;;;;13.50;3.53;;;;;;;28.70;49.67;99677.22;5066812;28;20256;-69
2022/08/26 07:37:51;;;;;;;13.90;3.60;;;;;;;28.87;49.87;99684.94;5069175;28;20234;-69
2022/08/26 07:40:18;;;;;;;10.73;3.95;;;;;;;28.85;49.80;99682.41;5070356;28;20230;-69
2022/08/26 07:42:45;;;;;;;11.38;4.00;;;;;;;29.03;49.48;99683.84;5071015;28;20209;-69
2022/08/26 07:45:12;;;;;;;6.57;3.33;;;;;;;28.82;49.85;99674.59;5070831;28;20205;-69
2022/08/26 07:47:40;;;;;;;10.65;3.80;;;;;;;29.15;49.37;99678.59;5050824;28;20268;-69
2022/08/26 07:50:07;;;;;;;16.58;3.17;;;;;;;29.19;47.95;99669.44;5051264;28;20207;-69
2022/08/26 07:52:36;;;;;;;14.55;3.40;;;;;;;28.86;46.61;99678.75;5051022;28;20214;-69
2022/08/26 07:55:05;;;;;;;8.98;3.00;;;;;;;29.10;47.33;99678.09;5051124;28;20206;-69
2022/08/26 07:57:33;;;;;;;10.10;3.35;;;;;;;29.55;47.31;99672.28;5050753;28;20226;-69
2022/08/26 08:00:00;;;;;;;10.73;3.67;;;;;;;29.76;46.08;99668.09;5051252;28;20211;-69
2022/08/26 08:02:28;;;;;;;7.15;3.00;;;;;;;29.68;42.93;99667.78;5051239;28;20199;-68
2022/08/26 08:04:57;;;;;;;12.48;3.08;;;;;;;29.80;43.18;99656.25;5050978;28;20674;-69
2022/08/26 08:07:24;;;;;;;12.65;3.30;;;;;;;29.92;44.43;99644.72;5050991;28;20294;-69
2022/08/26 08:09:50;;;;;;;5.10;2.83;;;;;;;30.10;44.16;99660.41;5048229;28;20662;-69
2022/08/26 08:12:18;;;;;;;14.40;3.60;;;;;;;30.05;41.93;99643.81;5051272;28;20231;-69
2022/08/26 08:14:45;;;;;;;14.95;3.47;;;;;;;30.36;43.92;99654.00;5050772;28;20203;-69
2022/08/26 08:17:13;;;;;;;8.02;3.10;;;;;;;30.26;45.30;99661.00;5050835;28;20219;-68
2022/08/26 08:19:40;;;;;;;8.52;3.20;;;;;;;30.13;43.55;99654.81;5050746;28;20195;-68
2022/08/26 08:22:08;;;;;;;9.48;3.13;;;;;;;29.86;43.06;99661.16;5050872;28;20604;-69
2022/08/26 08:24:35;;;;;;;9.65;3.63;;;;;;;30.10;43.69;99657.72;5050678;28;20203;-69
2022/08/26 08:27:03;;;;;;;13.52;3.67;;;;;;;30.28;43.62;99656.41;5048504;28;20215;-69
2022/08/26 08:29:30;;;;;;;22.35;3.90;;;;;;;30.26;43.64;99655.63;5054927;28;20203;-69
2022/08/26 08:31:57;;;;;;;15.52;3.78;;;;;;;29.91;43.87;99626.97;5054800;28;20211;-69
2022/08/26 08:34:25;;;;;;;12.68;3.20;;;;;;;30.31;44.43;99645.47;5054803;28;20586;-69
2022/08/26 08:36:51;;;;;;;10.65;3.47;;;;;;;30.16;45.77;99641.22;5054685;28;20226;-69
2022/08/26 08:39:20;;;;;;;10.65;3.40;;;;;;;30.16;45.40;99647.44;5054557;28;20209;-69
2022/08/26 08:41:59;;;;;;;11.57;4.10;;;;;;;30.14;45.57;99638.69;5019400;28;20210;-69
2022/08/26 08:44:26;;;;;;;11.05;4.03;;;;;;;30.15;43.44;99636.84;5054529;28;20570;-69
2022/08/26 08:46:57;;;;;;;12.25;3.60;;;;;;;30.10;43.81;99631.84;5054632;28;20195;-69
2022/08/26 08:49:24;;;;;;;10.25;4.32;;;;;;;30.46;42.86;99639.88;5054465;28;20207;-69
2022/08/26 08:51:59;;;;;;;11.48;3.92;;;;;;;30.58;42.92;99640.78;5019105;28;20256;-68
2022/08/26 08:54:30;;;;;;;12.35;3.33;;;;;;;30.88;41.77;99638.50;5054309;28;20205;-68
2022/08/26 08:57:02;;;;;;;9.32;3.42;;;;;;;30.79;42.10;99636.50;5054065;28;20297;-68
2022/08/26 08:59:33;;;;;;;18.10;4.63;;;;;;;30.93;41.19;99643.47;5054243;28;20257;-69
2022/08/26 09:02:07;;;;;;;12.43;3.42;;;;;;;30.82;40.57;99641.63;5054166;28;20548;-69
2022/08/26 09:05:12;;;;;;;13.25;3.90;;;;;;;31.01;40.69;99642.94;5054426;28;20305;-69
2022/08/26 09:07:44;;;;;;;7.95;4.00;;;;;;;30.88;41.18;99619.75;5054257;28;20210;-68
2022/08/26 09:10:35;;;;;;;17.77;4.95;;;;;;;31.39;40.06;99630.13;5053346;28;20209;-69
2022/08/26 09:13:06;;;;;;;9.70;3.90;;;;;;;31.62;40.56;99626.53;5030873;28;20196;-68
2022/08/26 09:15:41;;;;;;;18.10;3.78;;;;;;;32.08;39.28;99630.91;5030735;28;20195;-69
2022/08/26 09:18:17;;;;;;;6.78;3.70;;;;;;;31.79;39.54;99623.34;4981583;28;20230;-69
2022/08/26 09:20:52;;;;;;;12.55;3.63;;;;;;;31.86;38.96;99612.97;5017797;28;20204;-69
2022/08/26 09:23:19;;;;;;;12.73;3.83;;;;;;;31.71;38.55;99611.56;5014293;28;20204;-71
2022/08/26 09:25:50;;;;;;;12.60;3.88;;;;;;;31.81;38.11;99613.38;4965839;28;20204;-69
2022/08/26 09:28:19;;;;;;;12.63;3.58;;;;;;;31.61;40.02;99600.69;4962766;28;20196;-70
2022/08/26 09:30:57;;;;;;;10.45;4.75;;;;;;;32.12;37.80;99618.97;5022599;28;20211;-69
2022/08/26 09:33:28;;;;;;;8.60;3.65;;;;;;;31.81;40.91;99615.19;4999626;28;20223;-70
2022/08/26 09:36:12;;;;;;;12.35;3.30;;;;;;;32.09;38.28;99613.84;5031415;28;20211;-69
2022/08/26 09:38:40;;;;;;;9.43;4.10;;;;;;;31.94;38.82;99592.63;5017190;28;20231;-70
2022/08/26 09:41:24;;;;;;;13.50;4.05;;;;;;;31.96;38.54;99595.19;5030542;28;20222;-70
2022/08/26 09:44:14;;;;;;;8.75;3.83;;;;;;;32.21;38.24;99607.50;5030724;28;20729;-69
2022/08/26 09:46:45;;;;;;;11.25;3.95;;;;;;;32.36;37.78;99603.53;5028577;28;20237;-69
2022/08/26 09:49:26;;;;;;;12.20;3.92;;;;;;;32.38;37.67;99599.75;5036997;28;20256;-68
2022/08/26 09:52:19;;;;;;;11.40;4.25;;;;;;;32.43;37.81;99610.09;5052965;28;20203;-68
2022/08/26 09:55:00;;;;;;;16.88;3.75;;;;;;;32.37;38.33;99595.38;4991420;28;20209;-68
2022/08/26 09:57:31;;;;;;;11.00;3.80;;;;;;;32.38;37.80;99593.53;4942457;28;20767;-68
2022/08/26 10:00:00;;;;;;;12.75;3.70;;;;;;;32.25;38.60;99598.22;4990974;28;20211;-68
2022/08/26 10:02:40;;;;;;;13.77;3.58;;;;;;;32.54;36.47;99577.00;4990865;28;20272;-68
2022/08/26 10:05:15;;;;;;;17.20;3.75;;;;;;;33.05;36.06;99593.25;4991125;28;20216;-70
2022/08/26 10:07:46;;;;;;;16.63;3.67;;;;;;;33.32;36.66;99599.81;4990814;28;20247;-68
2022/08/26 10:10:20;;;;;;;10.05;3.15;;;;;;;32.65;36.09;99569.78;4990764;28;20193;-69
2022/08/26 10:12:56;;;;;;;17.83;3.28;;;;;;;32.52;37.58;99592.38;4990577;28;20197;-69
2022/08/26 10:15:25;;;;;;;8.63;3.10;;;;;;;32.71;36.84;99582.69;4990981;28;20275;-69
2022/08/26 10:18:01;;;;;;;12.88;3.38;;;;;;;32.78;36.28;99586.59;4990668;28;20290;-68
2022/08/26 10:20:34;;;;;;;5.68;3.17;;;;;;;32.78;36.25;99586.59;4997403;28;20351;-68
2022/08/26 10:23:05;;;;;;;16.58;3.80;;;;;;;32.57;35.84;99582.97;5010286;28;20223;-69
2022/08/26 10:25:36;;;;;;;10.82;3.25;;;;;;;32.63;35.78;99555.66;5010465;28;20284;-68
2022/08/26 10:28:09;;;;;;;12.90;3.28;;;;;;;32.65;35.31;99569.78;5009649;28;20204;-68
2022/08/26 10:30:43;;;;;;;13.40;3.78;;;;;;;32.72;35.70;99560.22;5009952;28;20208;-69
2022/08/26 10:33:13;;;;;;;10.30;3.78;;;;;;;32.72;35.18;99570.97;5071893;28;20202;-68
2022/08/26 10:35:49;;;;;;;11.88;3.40;;;;;;;32.73;34.96;99567.31;5072264;28;20289;-68
2022/08/26 10:38:22;;;;;;;8.95;3.15;;;;;;;32.68;34.50;99558.78;5035147;28;20229;-67
2022/08/26 10:40:56;;;;;;;13.07;3.38;;;;;;;32.95;35.82;99562.78;5060382;28;20294;-68
2022/08/26 10:43:28;;;;;;;6.85;3.17;;;;;;;32.59;34.73;99564.06;5092452;28;20684;-67
2022/08/26 10:46:00;;;;;;;9.90;2.90;;;;;;;32.15;35.08;99506.88;5084079;28;20578;-68
2022/08/26 10:48:35;;;;;;;12.98;3.17;;;;;;;32.68;35.94;99558.78;5071822;28;20919;-68
2022/08/26 10:51:03;;;;;;;9.57;3.47;;;;;;;32.53;35.82;99543.94;5050834;28;20669;-67
2022/08/26 10:53:38;;;;;;;13.60;3.88;;;;;;;32.97;34.99;99558.13;5016938;28;20677;-68
2022/08/26 10:56:09;;;;;;;17.00;3.50;;;;;;;32.97;36.29;99555.44;5051996;28;20195;-67
2022/08/26 10:58:48;;;;;;;7.75;3.63;;;;;;;32.82;35.30;99555.75;5033169;28;20230;-68
2022/08/26 11:04:16;;;;;;;18.65;3.65;;;;;;;33.12;34.72;99546.94;5052176;28;20206;-68
2022/08/26 11:06:44;;;;;;;10.95;3.85;;;;;;;33.15;35.33;99544.00;5051347;28;20201;-68
2022/08/26 11:09:30;;;;;;;10.57;3.38;;;;;;;33.06;33.62;99531.34;5051415;28;20228;-69
2022/08/26 11:11:57;;;;;;;10.70;2.95;;;;;;;33.41;34.13;99536.34;5052557;28;20726;-70
2022/08/26 11:14:33;;;;;;;9.18;3.13;;;;;;;33.31;33.89;99532.78;5071741;28;20194;-68
2022/08/26 11:17:01;;;;;;;15.77;3.05;;;;;;;33.53;33.21;99537.09;5071250;28;20571;-68
2022/08/26 11:20:10;;;;;;;10.27;3.03;;;;;;;33.94;33.35;99539.66;5070964;28;20229;-68
2022/08/26 11:22:38;;;;;;;14.88;3.42;;;;;;;33.99;32.56;99539.25;5071394;28;20666;-67
2022/08/26 11:25:13;;;;;;;13.52;3.13;;;;;;;34.31;32.80;99537.22;5057885;28;20288;-68
2022/08/26 11:28:05;;;;;;;15.75;3.85;;;;;;;34.42;33.15;99539.75;5081859;28;20197;-70
2022/08/26 11:30:50;;;;;;;15.77;3.28;;;;;;;34.24;33.25;99536.06;5079517;28;20226;-68
2022/08/26 11:33:50;;;;;;;12.10;3.42;;;;;;;34.30;32.95;99539.03;5081048;28;20221;-69
2022/08/26 11:36:39;;;;;;;10.00;2.92;;;;;;;34.32;32.39;99533.50;5052131;28;20191;-69
2022/08/26 11:39:20;;;;;;;15.23;3.42;;;;;;;34.09;34.11;99532.91;5081580;28;20216;-69
2022/08/26 11:41:49;;;;;;;10.65;3.35;;;;;;;34.62;33.23;99525.31;5077578;28;20198;-69
2022/08/26 11:44:19;;;;;;;9.05;3.50;;;;;;;34.79;32.78;99526.41;5080114;28;20197;-69
2022/08/26 11:46:55;;;;;;;5.75;3.25;;;;;;;34.92;31.38;99523.44;5077015;28;20194;-68
2022/08/26 11:49:23;;;;;;;10.07;3.35;;;;;;;34.91;30.99;99524.41;5079888;28;20205;-69